Time;durP1;ratioP1;P1;durP2;ratioP2;P2;SDS_P1;SDS_P2;PMS_P1;PMS_P2;Temp;Humidity;BMP_temperature;BMP_pressure;BME280_temperature;BME280_humidity;BME280_pressure;Samples;Min_cycle;Max_cycle;Signal;HPM_P1;HPM_P2
2022/01/21 00:01:12;;;;;;;14.13;3.50;;;2.20;99.70;;;;;;5032105;28;20448;-67
2022/01/21 00:03:40;;;;;;;9.70;3.77;;;2.20;99.70;;;;;;5032176;28;20826;-67
2022/01/21 00:06:07;;;;;;;8.00;3.27;;;2.00;99.70;;;;;;5031989;28;20791;-67
2022/01/21 00:08:36;;;;;;;10.83;3.97;;;1.80;99.70;;;;;;5029509;28;20465;-67
2022/01/21 00:11:03;;;;;;;11.70;3.00;;;1.90;99.70;;;;;;5031790;28;20525;-67
2022/01/21 00:13:34;;;;;;;9.90;3.57;;;1.90;99.70;;;;;;5017578;28;20835;-67
2022/01/21 00:16:02;;;;;;;7.97;3.30;;;2.00;99.70;;;;;;5011811;28;20912;-66
2022/01/21 00:18:29;;;;;;;10.13;3.37;;;1.90;99.70;;;;;;5011544;28;20461;-67
2022/01/21 00:31:54;;;;;;;8.20;3.10;;;1.80;99.70;;;;;;5011550;28;20428;-67
2022/01/21 00:34:21;;;;;;;8.93;3.17;;;1.80;99.70;;;;;;5011560;28;20826;-67
2022/01/21 00:36:48;;;;;;;8.43;3.67;;;1.90;99.70;;;;;;5011701;28;20831;-67
2022/01/21 00:39:20;;;;;;;9.07;3.60;;;1.90;99.70;;;;;;5011189;28;20474;-67
2022/01/21 00:41:56;;;;;;;8.40;3.23;;;1.80;99.70;;;;;;5014105;28;20452;-67
2022/01/21 00:44:23;;;;;;;8.90;2.93;;;1.70;99.70;;;;;;5031119;28;20456;-66
2022/01/21 00:46:49;;;;;;;10.83;3.20;;;1.90;99.70;;;;;;5031096;28;20861;-67
2022/01/21 00:49:16;;;;;;;6.97;2.90;;;1.80;99.70;;;;;;5030668;28;21007;-67
2022/01/21 00:51:43;;;;;;;10.50;3.00;;;1.60;99.70;;;;;;5031197;28;20448;-67
2022/01/21 00:54:10;;;;;;;9.20;3.23;;;1.60;99.70;;;;;;5031117;28;20445;-67
2022/01/21 00:56:38;;;;;;;10.10;3.10;;;1.70;99.70;;;;;;5030651;28;20984;-67
2022/01/21 00:59:05;;;;;;;10.07;3.40;;;1.90;99.70;;;;;;5030375;28;20476;-66
2022/01/21 01:01:32;;;;;;;9.43;3.00;;;1.70;99.70;;;;;;5030990;28;20970;-67
2022/01/21 01:03:59;;;;;;;8.10;3.10;;;1.60;99.70;;;;;;5030869;28;20459;-68
2022/01/21 01:06:25;;;;;;;7.20;3.00;;;1.70;99.70;;;;;;5031031;28;20448;-67
2022/01/21 01:08:53;;;;;;;7.83;2.93;;;1.70;99.70;;;;;;5029910;28;20468;-66
2022/01/21 01:11:28;;;;;;;9.90;3.47;;;1.80;99.70;;;;;;5030469;28;20453;-67
2022/01/21 01:22:09;;;;;;;7.33;3.10;;;1.70;99.70;;;;;;5030406;28;20953;-67
2022/01/21 01:27:37;;;;;;;9.50;3.20;;;2.00;99.70;;;;;;5030550;28;20852;-67
2022/01/21 01:30:07;;;;;;;7.83;3.13;;;1.80;99.70;;;;;;5030604;28;20444;-67
2022/01/21 01:32:34;;;;;;;6.83;2.83;;;1.90;99.70;;;;;;5030675;28;20445;-67
2022/01/21 01:35:01;;;;;;;8.03;3.00;;;1.90;99.70;;;;;;5030575;28;21101;-67
2022/01/21 01:37:40;;;;;;;9.60;2.83;;;1.80;99.70;;;;;;5030662;28;20445;-67
2022/01/21 01:40:21;;;;;;;11.80;3.60;;;1.70;99.70;;;;;;5030506;28;20535;-67
2022/01/21 01:51:04;;;;;;;9.70;3.20;;;1.80;99.70;;;;;;5026082;28;20432;-68
2022/01/21 01:53:34;;;;;;;9.37;2.90;;;1.90;99.70;;;;;;5014030;28;20809;-67
2022/01/21 01:56:02;;;;;;;8.70;3.10;;;2.00;99.70;;;;;;5012847;28;20481;-66
2022/01/21 01:58:29;;;;;;;9.57;3.00;;;2.10;99.70;;;;;;5013117;28;20485;-67
2022/01/21 02:00:57;;;;;;;8.93;2.97;;;2.00;99.70;;;;;;5012753;28;20484;-66
2022/01/21 02:03:25;;;;;;;9.50;3.37;;;1.80;99.70;;;;;;5012606;28;20445;-66
2022/01/21 02:05:51;;;;;;;10.93;3.73;;;2.00;99.70;;;;;;5011865;28;20476;-66
2022/01/21 02:08:18;;;;;;;10.20;3.57;;;2.00;99.70;;;;;;5011848;28;20851;-66
2022/01/21 02:10:45;;;;;;;13.97;3.37;;;1.90;99.70;;;;;;5012054;28;20556;-66
2022/01/21 02:13:21;;;;;;;8.10;3.50;;;1.90;99.70;;;;;;5012041;28;20457;-66
2022/01/21 02:16:06;;;;;;;11.87;4.50;;;1.80;99.70;;;;;;5012696;28;20481;-66
2022/01/21 02:21:38;;;;;;;13.73;3.80;;;1.90;99.70;;;;;;5012410;28;20905;-66
2022/01/21 02:24:09;;;;;;;8.97;3.20;;;1.90;99.70;;;;;;5020146;28;20975;-67
2022/01/21 02:26:36;;;;;;;13.00;3.60;;;1.80;99.70;;;;;;5012976;28;20474;-67
2022/01/21 02:29:05;;;;;;;9.63;3.30;;;1.60;99.70;;;;;;5011966;28;20472;-67
2022/01/21 02:31:33;;;;;;;13.67;3.50;;;1.70;99.70;;;;;;5011661;28;20544;-66
2022/01/21 02:34:00;;;;;;;10.53;3.50;;;1.90;99.70;;;;;;5014493;28;20507;-66
2022/01/21 02:36:29;;;;;;;7.90;3.40;;;1.70;99.70;;;;;;5015938;28;20477;-66
2022/01/21 02:38:55;;;;;;;6.77;3.30;;;2.00;99.70;;;;;;5014409;28;20473;-66
2022/01/21 02:41:22;;;;;;;9.07;3.53;;;2.00;99.70;;;;;;5016025;28;20457;-67
2022/01/21 02:43:50;;;;;;;9.10;3.40;;;1.90;99.70;;;;;;5014724;28;20847;-66
2022/01/21 02:46:17;;;;;;;9.30;3.10;;;1.80;99.70;;;;;;5015275;28;20442;-66
2022/01/21 02:48:44;;;;;;;14.53;3.87;;;1.90;99.70;;;;;;5015329;28;20587;-68
2022/01/21 02:51:14;;;;;;;10.07;3.70;;;1.70;99.70;;;;;;5014627;28;20457;-67
2022/01/21 02:56:27;;;;;;;10.97;3.50;;;1.90;99.70;;;;;;5022543;28;20495;-67
2022/01/21 02:58:54;;;;;;;9.47;3.53;;;1.90;99.70;;;;;;5029615;28;20975;-66
2022/01/21 03:01:21;;;;;;;12.10;3.83;;;1.70;99.70;;;;;;5030829;28;20506;-67
2022/01/21 03:03:49;;;;;;;10.13;3.50;;;1.70;99.70;;;;;;5029663;28;20445;-67
2022/01/21 03:06:18;;;;;;;9.23;3.23;;;1.80;99.70;;;;;;5031564;28;20437;-67
2022/01/21 03:08:49;;;;;;;8.80;3.60;;;1.80;99.70;;;;;;5029130;28;20460;-67
2022/01/21 03:11:16;;;;;;;8.43;3.27;;;1.80;99.70;;;;;;5029158;28;20442;-67
2022/01/21 03:13:44;;;;;;;10.90;3.50;;;1.60;99.70;;;;;;5030613;28;20441;-66
2022/01/21 03:16:11;;;;;;;8.83;3.27;;;1.70;99.70;;;;;;5029490;28;20486;-67
2022/01/21 03:18:38;;;;;;;13.60;3.37;;;1.60;99.70;;;;;;5029082;28;21170;-66
2022/01/21 03:21:07;;;;;;;17.60;4.17;;;1.80;99.70;;;;;;5031169;28;20602;-66
2022/01/21 03:23:34;;;;;;;9.77;3.37;;;1.80;99.70;;;;;;5029361;28;20451;-68
2022/01/21 03:26:03;;;;;;;9.07;3.30;;;1.90;99.70;;;;;;5029543;28;20483;-66
2022/01/21 03:28:30;;;;;;;7.73;3.57;;;1.70;99.70;;;;;;5013714;28;20473;-66
2022/01/21 03:30:56;;;;;;;6.97;2.83;;;1.70;99.70;;;;;;5015034;28;20773;-67
2022/01/21 03:33:25;;;;;;;6.90;3.47;;;1.90;99.70;;;;;;5013760;28;20456;-66
2022/01/21 03:35:53;;;;;;;8.07;3.20;;;1.90;99.70;;;;;;5014684;28;20478;-66
2022/01/21 03:38:21;;;;;;;6.90;2.90;;;1.70;99.70;;;;;;5014752;28;20538;-66
2022/01/21 03:40:48;;;;;;;10.73;3.17;;;1.70;99.70;;;;;;5013733;28;20449;-66
2022/01/21 03:43:16;;;;;;;11.60;3.40;;;1.80;99.70;;;;;;5014685;28;20835;-66
2022/01/21 03:45:43;;;;;;;9.00;3.60;;;1.70;99.70;;;;;;5014349;28;20881;-66
2022/01/21 03:48:09;;;;;;;12.40;3.50;;;1.60;99.70;;;;;;5013319;28;20512;-66
2022/01/21 03:50:36;;;;;;;9.33;3.40;;;1.70;99.70;;;;;;5014536;28;20452;-67
2022/01/21 03:53:04;;;;;;;11.47;3.50;;;1.70;99.70;;;;;;5014202;28;20449;-67
2022/01/21 03:55:32;;;;;;;8.80;3.27;;;1.70;99.70;;;;;;5013430;28;20473;-67
2022/01/21 03:57:59;;;;;;;9.63;3.70;;;1.80;99.70;;;;;;5013844;28;20528;-67
2022/01/21 04:00:32;;;;;;;17.70;3.40;;;1.80;99.70;;;;;;5013465;28;20445;-67
2022/01/21 04:02:59;;;;;;;8.60;3.27;;;1.70;99.70;;;;;;5023804;28;20445;-67
2022/01/21 04:05:26;;;;;;;10.60;3.70;;;1.80;99.70;;;;;;5014210;28;20444;-67
2022/01/21 04:07:52;;;;;;;8.47;3.30;;;1.80;99.70;;;;;;5012939;28;20472;-66
2022/01/21 04:10:19;;;;;;;7.43;3.20;;;1.70;99.70;;;;;;5013724;28;20449;-66
2022/01/21 04:12:46;;;;;;;13.60;3.60;;;1.80;99.70;;;;;;5014279;28;20451;-67
2022/01/21 04:15:13;;;;;;;13.60;3.50;;;1.80;99.70;;;;;;5013107;28;20492;-67
2022/01/21 04:17:41;;;;;;;20.47;4.23;;;1.70;99.70;;;;;;5013879;28;20465;-64
2022/01/21 04:20:10;;;;;;;7.83;3.50;;;1.90;99.70;;;;;;5013706;28;20457;-67
2022/01/21 04:22:37;;;;;;;10.73;3.40;;;1.70;99.70;;;;;;5019954;28;20471;-67
2022/01/21 04:25:06;;;;;;;9.93;3.60;;;1.50;99.70;;;;;;5027848;28;20450;-66
2022/01/21 04:27:32;;;;;;;15.97;4.47;;;1.60;99.70;;;;;;5029438;28;20563;-67
2022/01/21 04:30:00;;;;;;;8.33;3.20;;;1.50;99.70;;;;;;5028642;28;20452;-67
2022/01/21 04:32:26;;;;;;;10.70;3.80;;;1.40;99.70;;;;;;5028114;28;20507;-67
2022/01/21 04:34:54;;;;;;;9.23;3.90;;;1.40;99.70;;;;;;5029676;28;20457;-67
2022/01/21 04:37:21;;;;;;;11.07;3.60;;;1.50;99.70;;;;;;5027873;28;20476;-67
2022/01/21 04:39:57;;;;;;;10.90;3.77;;;1.30;99.70;;;;;;5027688;28;20518;-67
2022/01/21 04:47:52;;;;;;;13.33;3.57;;;1.60;99.70;;;;;;5013344;28;20461;-66
2022/01/21 04:50:20;;;;;;;11.27;3.80;;;1.60;99.70;;;;;;5013603;28;20446;-67
2022/01/21 04:52:46;;;;;;;16.00;3.77;;;1.50;99.70;;;;;;5012438;28;21032;-66
2022/01/21 04:55:14;;;;;;;10.23;3.57;;;1.50;99.70;;;;;;5012943;28;20450;-67
2022/01/21 04:57:41;;;;;;;14.53;4.37;;;1.40;99.70;;;;;;5012191;28;20926;-66
2022/01/21 05:00:09;;;;;;;18.13;5.57;;;1.40;99.70;;;;;;5012549;28;20441;-67
2022/01/21 05:02:36;;;;;;;18.60;4.17;;;1.50;99.70;;;;;;5011981;28;20449;-67
2022/01/21 05:05:04;;;;;;;10.10;3.70;;;1.50;99.70;;;;;;5011003;28;20441;-67
2022/01/21 05:07:35;;;;;;;11.90;4.27;;;1.50;99.70;;;;;;5010996;28;20479;-66
2022/01/21 05:10:03;;;;;;;10.93;4.27;;;1.50;99.70;;;;;;5010393;28;20445;-67
2022/01/21 05:12:30;;;;;;;11.13;4.30;;;1.40;99.70;;;;;;5023317;28;20474;-67
2022/01/21 05:15:12;;;;;;;10.13;3.93;;;1.30;99.70;;;;;;5030794;28;20436;-67
2022/01/21 05:17:44;;;;;;;12.70;4.10;;;1.50;99.70;;;;;;5030763;28;20487;-66
2022/01/21 05:20:12;;;;;;;13.07;4.20;;;1.50;99.70;;;;;;5030947;28;20522;-67
2022/01/21 05:22:40;;;;;;;9.23;3.70;;;1.60;99.70;;;;;;5017026;28;20457;-67
2022/01/21 05:25:08;;;;;;;13.03;4.00;;;1.60;99.70;;;;;;5010947;28;20452;-67
2022/01/21 05:27:35;;;;;;;13.67;3.93;;;1.60;99.70;;;;;;5010786;28;20441;-67
2022/01/21 05:30:03;;;;;;;11.70;4.03;;;1.70;99.70;;;;;;5010615;28;20449;-67
2022/01/21 05:32:29;;;;;;;11.90;3.77;;;1.50;99.70;;;;;;5022709;28;20476;-67
2022/01/21 05:34:56;;;;;;;12.33;3.90;;;1.40;99.70;;;;;;5030605;28;20451;-67
2022/01/21 05:37:23;;;;;;;9.50;3.90;;;1.30;99.70;;;;;;5030469;28;20480;-66
2022/01/21 05:39:52;;;;;;;14.50;4.30;;;1.30;99.70;;;;;;5030268;28;20444;-67
2022/01/21 05:42:20;;;;;;;12.50;4.23;;;1.40;99.70;;;;;;5020043;28;20450;-67
2022/01/21 05:47:31;;;;;;;10.37;3.80;;;1.30;99.70;;;;;;5010843;28;20971;-67
2022/01/21 05:49:58;;;;;;;9.80;4.13;;;1.30;99.70;;;;;;5026032;28;20868;-67
2022/01/21 05:52:33;;;;;;;11.10;3.87;;;1.30;99.70;;;;;;5030564;28;20491;-67
2022/01/21 05:55:01;;;;;;;9.63;4.00;;;1.30;99.70;;;;;;5030494;28;20471;-66
2022/01/21 05:57:30;;;;;;;14.07;4.83;;;1.30;99.70;;;;;;5031391;28;20491;-66
2022/01/21 05:59:56;;;;;;;17.67;4.70;;;1.40;99.70;;;;;;5015499;28;20484;-67
2022/01/21 06:02:23;;;;;;;13.37;4.83;;;1.40;99.70;;;;;;5010365;28;20507;-67
2022/01/21 06:04:51;;;;;;;8.23;3.97;;;1.40;99.70;;;;;;5027895;28;20445;-66
2022/01/21 06:07:18;;;;;;;15.87;5.50;;;1.80;99.70;;;;;;5029672;28;20448;-67
2022/01/21 06:09:45;;;;;;;11.73;4.93;;;1.70;99.70;;;;;;5030823;28;20540;-67
2022/01/21 06:12:13;;;;;;;10.73;4.80;;;1.40;99.70;;;;;;5034245;28;20502;-66
2022/01/21 06:14:40;;;;;;;12.83;4.70;;;1.30;99.70;;;;;;5033664;28;20444;-67
2022/01/21 06:17:07;;;;;;;11.23;4.90;;;1.40;99.70;;;;;;5034074;28;20507;-67
2022/01/21 06:19:33;;;;;;;13.47;4.77;;;1.30;99.70;;;;;;5022526;28;20477;-68
2022/01/21 06:22:00;;;;;;;10.77;4.40;;;1.40;99.70;;;;;;5013023;28;20503;-65
2022/01/21 06:24:27;;;;;;;9.37;3.93;;;1.20;99.70;;;;;;5032820;28;20441;-67
2022/01/21 06:26:59;;;;;;;13.40;4.90;;;1.30;99.70;;;;;;5033435;28;20467;-66
2022/01/21 06:29:27;;;;;;;11.50;5.00;;;1.50;99.70;;;;;;5032520;28;20530;-67
2022/01/21 06:31:54;;;;;;;14.33;4.43;;;1.60;99.70;;;;;;5032967;28;20967;-67
2022/01/21 06:34:24;;;;;;;13.03;4.50;;;1.50;99.70;;;;;;5033679;28;20490;-67
2022/01/21 06:36:51;;;;;;;15.73;4.87;;;1.60;99.70;;;;;;5033532;28;20563;-66
2022/01/21 06:39:17;;;;;;;11.83;4.63;;;1.60;99.70;;;;;;5032456;28;20996;-67
2022/01/21 06:41:46;;;;;;;12.73;4.63;;;1.70;99.70;;;;;;5032778;28;20456;-67
2022/01/21 06:44:13;;;;;;;15.73;4.80;;;1.60;99.70;;;;;;5031466;28;20484;-66
2022/01/21 06:46:42;;;;;;;13.20;4.93;;;1.60;99.70;;;;;;5031745;28;20532;-67
2022/01/21 06:49:08;;;;;;;15.17;4.63;;;1.60;99.70;;;;;;5023829;28;20472;-67
2022/01/21 06:51:35;;;;;;;13.63;5.57;;;1.60;99.70;;;;;;5011803;28;20445;-66
2022/01/21 06:54:02;;;;;;;13.43;4.63;;;1.50;99.70;;;;;;5011771;28;20877;-67
2022/01/21 06:56:30;;;;;;;16.53;5.70;;;1.50;99.70;;;;;;5012751;28;20473;-67
2022/01/21 06:58:57;;;;;;;15.87;4.80;;;1.50;99.70;;;;;;5018139;28;20582;-66
2022/01/21 07:01:24;;;;;;;12.43;4.30;;;1.60;99.70;;;;;;5031254;28;20457;-67
2022/01/21 07:03:52;;;;;;;18.30;5.03;;;1.60;99.70;;;;;;5023415;28;20465;-67
2022/01/21 07:06:18;;;;;;;12.27;4.70;;;1.60;99.70;;;;;;5033104;28;20772;-67
2022/01/21 07:08:45;;;;;;;13.63;4.60;;;1.70;99.70;;;;;;5030217;28;20523;-67
2022/01/21 07:11:12;;;;;;;13.60;4.87;;;1.80;99.70;;;;;;5032816;28;20523;-67
2022/01/21 07:13:39;;;;;;;17.53;4.57;;;1.70;99.70;;;;;;5033005;28;20448;-66
2022/01/21 07:16:06;;;;;;;19.13;5.57;;;1.60;99.70;;;;;;5033024;28;20456;-67
2022/01/21 07:18:33;;;;;;;17.70;6.27;;;1.80;99.70;;;;;;5021054;28;21210;-67
2022/01/21 07:21:01;;;;;;;17.17;5.67;;;1.90;99.70;;;;;;5025308;28;20465;-67
2022/01/21 07:23:27;;;;;;;13.60;5.77;;;1.70;99.70;;;;;;5027625;28;20444;-67
2022/01/21 07:25:54;;;;;;;19.30;6.07;;;1.70;99.70;;;;;;5025225;28;20514;-66
2022/01/21 07:28:21;;;;;;;19.50;6.23;;;1.50;99.70;;;;;;5025862;28;20472;-67
2022/01/21 07:30:51;;;;;;;16.50;5.13;;;1.60;99.70;;;;;;5023508;28;20820;-67
2022/01/21 07:33:18;;;;;;;13.70;5.13;;;1.50;99.70;;;;;;5022750;28;20430;-66
2022/01/21 07:35:45;;;;;;;15.10;5.07;;;1.50;99.70;;;;;;5019129;28;20464;-67
2022/01/21 07:38:13;;;;;;;13.47;5.30;;;1.80;99.70;;;;;;5031079;28;20867;-67
2022/01/21 07:40:40;;;;;;;14.43;5.23;;;1.60;99.70;;;;;;5028978;28;20908;-67
2022/01/21 07:43:07;;;;;;;11.13;4.90;;;1.70;99.70;;;;;;5024067;28;20452;-67
2022/01/21 07:45:35;;;;;;;12.37;5.00;;;1.50;99.70;;;;;;5028339;28;20464;-67
2022/01/21 07:48:01;;;;;;;12.40;4.87;;;1.70;99.70;;;;;;5023757;28;20469;-66
2022/01/21 07:50:28;;;;;;;17.00;5.47;;;1.60;99.70;;;;;;5023495;28;20449;-67
2022/01/21 07:52:55;;;;;;;13.53;5.40;;;1.70;99.70;;;;;;5021941;28;20459;-67
2022/01/21 07:55:24;;;;;;;14.90;4.80;;;1.80;99.70;;;;;;5018606;28;20557;-67
2022/01/21 07:57:54;;;;;;;13.40;5.13;;;1.70;99.70;;;;;;5028664;28;20491;-66
2022/01/21 08:00:21;;;;;;;11.17;4.90;;;1.70;99.70;;;;;;5023987;28;20488;-67
2022/01/21 08:02:48;;;;;;;10.17;4.77;;;1.60;99.70;;;;;;5021645;28;20461;-67
2022/01/21 08:05:15;;;;;;;15.70;5.10;;;1.70;99.70;;;;;;5029978;28;20452;-67
2022/01/21 08:07:42;;;;;;;12.43;4.60;;;1.60;99.70;;;;;;5020954;28;20462;-67
2022/01/21 08:10:09;;;;;;;12.20;4.90;;;1.50;99.70;;;;;;5010931;28;20446;-67
2022/01/21 08:12:37;;;;;;;17.67;5.53;;;1.60;99.70;;;;;;5028159;28;20561;-67
2022/01/21 08:15:05;;;;;;;13.30;5.27;;;1.50;99.70;;;;;;5031684;28;20479;-67
2022/01/21 08:17:31;;;;;;;17.90;5.50;;;1.70;99.70;;;;;;5031732;28;20485;-68
2022/01/21 08:19:59;;;;;;;13.23;5.40;;;1.80;99.70;;;;;;5031207;28;20455;-67
2022/01/21 08:22:25;;;;;;;17.13;5.50;;;1.70;99.70;;;;;;5031829;28;20456;-67
2022/01/21 08:24:52;;;;;;;18.00;7.00;;;1.60;99.70;;;;;;5031569;28;20453;-67
2022/01/21 08:27:19;;;;;;;15.60;5.97;;;1.70;99.70;;;;;;5031568;28;20441;-66
2022/01/21 08:29:47;;;;;;;16.93;5.80;;;1.80;99.70;;;;;;5031029;28;20447;-67
2022/01/21 08:32:14;;;;;;;22.10;8.00;;;2.10;99.70;;;;;;5030695;28;20456;-67
2022/01/21 08:34:41;;;;;;;26.40;12.50;;;2.10;99.70;;;;;;5030959;28;20445;-67
2022/01/21 08:37:07;;;;;;;27.23;13.10;;;2.20;99.70;;;;;;5028506;28;20499;-67
2022/01/21 08:39:34;;;;;;;32.00;12.90;;;1.90;99.70;;;;;;5016370;28;20480;-66
2022/01/21 08:42:02;;;;;;;21.50;7.33;;;2.10;99.70;;;;;;5016902;28;20502;-66
2022/01/21 08:44:29;;;;;;;23.70;9.27;;;2.40;99.70;;;;;;5011582;28;20457;-67
2022/01/21 08:46:57;;;;;;;33.00;11.60;;;2.20;99.70;;;;;;5011563;28;20948;-67
2022/01/21 08:49:23;;;;;;;22.60;8.40;;;2.20;99.70;;;;;;5011221;28;20461;-67
2022/01/21 08:51:53;;;;;;;38.60;14.83;;;2.20;99.70;;;;;;5011200;28;20452;-67
2022/01/21 08:54:21;;;;;;;34.40;13.10;;;2.20;99.70;;;;;;5011340;28;20952;-67
2022/01/21 08:56:51;;;;;;;29.40;10.20;;;2.20;99.70;;;;;;5011531;28;20863;-67
2022/01/21 08:59:19;;;;;;;17.60;6.17;;;2.30;99.70;;;;;;5010715;28;20488;-67
2022/01/21 09:01:49;;;;;;;19.90;8.10;;;2.30;99.70;;;;;;5011421;28;20446;-67
2022/01/21 09:04:18;;;;;;;19.93;7.50;;;2.20;99.70;;;;;;5011307;28;21017;-67
2022/01/21 09:06:46;;;;;;;15.73;6.10;;;2.20;99.70;;;;;;5011459;28;20951;-67
2022/01/21 09:09:13;;;;;;;17.67;5.90;;;2.30;99.70;;;;;;5010904;28;20469;-67
2022/01/21 09:11:40;;;;;;;21.90;6.57;;;2.40;99.70;;;;;;5011253;28;20434;-67
2022/01/21 09:14:07;;;;;;;19.90;7.87;;;2.40;99.70;;;;;;5011269;28;20531;-67
2022/01/21 09:16:33;;;;;;;19.60;7.23;;;2.40;99.70;;;;;;5011139;28;20456;-66
2022/01/21 09:19:02;;;;;;;16.03;6.57;;;2.40;99.70;;;;;;5009915;28;20486;-66
2022/01/21 09:21:32;;;;;;;14.50;6.53;;;2.50;99.70;;;;;;5010848;28;20516;-67
2022/01/21 09:24:00;;;;;;;12.90;5.40;;;2.50;99.70;;;;;;5010922;28;20879;-67
2022/01/21 09:26:27;;;;;;;17.20;6.27;;;2.70;99.70;;;;;;5011042;28;20456;-67
2022/01/21 09:28:54;;;;;;;21.30;9.77;;;3.00;99.70;;;;;;5010604;28;20976;-67
2022/01/21 09:31:21;;;;;;;11.97;5.87;;;2.70;99.70;;;;;;5017836;28;20960;-67
2022/01/21 09:33:48;;;;;;;19.07;6.13;;;2.70;99.70;;;;;;5014838;28;20449;-68
2022/01/21 09:36:17;;;;;;;16.63;5.50;;;2.70;99.70;;;;;;5012135;28;20461;-67
2022/01/21 09:38:46;;;;;;;20.37;6.40;;;2.80;99.70;;;;;;5012841;28;20984;-67
2022/01/21 09:41:13;;;;;;;18.47;5.90;;;2.80;99.70;;;;;;5012186;28;20460;-67
2022/01/21 09:43:40;;;;;;;13.20;5.13;;;2.80;99.70;;;;;;5016304;28;20511;-66
2022/01/21 09:46:08;;;;;;;15.00;5.83;;;2.90;99.70;;;;;;5016130;28;20507;-67
2022/01/21 09:48:48;;;;;;;17.13;5.73;;;2.90;99.70;;;;;;5015673;28;20496;-66
2022/01/21 09:51:16;;;;;;;17.53;6.00;;;3.20;99.70;;;;;;5016152;28;20452;-66
2022/01/21 09:53:45;;;;;;;14.53;5.33;;;3.10;99.70;;;;;;5017147;28;20460;-67
2022/01/21 09:56:14;;;;;;;14.87;5.87;;;3.00;99.70;;;;;;5019555;28;20452;-67
2022/01/21 09:58:44;;;;;;;16.50;5.80;;;3.10;99.70;;;;;;5017001;28;20509;-66
2022/01/21 10:01:11;;;;;;;13.70;5.00;;;3.00;99.70;;;;;;5015895;28;20543;-67
2022/01/21 10:03:43;;;;;;;15.67;5.27;;;3.00;99.70;;;;;;5016324;28;20454;-67
2022/01/21 10:06:11;;;;;;;16.47;5.13;;;3.20;99.70;;;;;;5015408;28;20456;-67
2022/01/21 10:08:41;;;;;;;15.07;5.33;;;3.20;99.70;;;;;;5015385;28;20468;-67
2022/01/21 10:11:10;;;;;;;14.13;5.30;;;3.30;99.70;;;;;;5015721;28;21082;-67
2022/01/21 10:13:37;;;;;;;20.97;6.57;;;3.30;99.70;;;;;;5015705;28;20473;-66
2022/01/21 10:16:05;;;;;;;17.10;6.47;;;3.40;99.70;;;;;;5016331;28;20541;-66
2022/01/21 10:18:32;;;;;;;12.83;5.83;;;3.50;99.70;;;;;;5015068;28;20493;-67
2022/01/21 10:21:00;;;;;;;13.50;5.60;;;3.60;99.70;;;;;;5016586;28;20831;-66
2022/01/21 10:23:28;;;;;;;11.40;5.77;;;3.50;99.70;;;;;;5015309;28;20884;-66
2022/01/21 10:26:04;;;;;;;17.27;5.93;;;3.50;99.70;;;;;;5030806;28;20456;-67
2022/01/21 10:28:34;;;;;;;13.73;6.47;;;3.50;99.70;;;;;;5031414;28;20812;-67
2022/01/21 10:31:13;;;;;;;13.80;6.50;;;3.30;99.70;;;;;;5030065;28;20440;-66
2022/01/21 10:33:42;;;;;;;20.50;7.13;;;3.20;99.70;;;;;;5030092;28;20456;-67
2022/01/21 10:36:15;;;;;;;16.10;5.57;;;3.30;99.70;;;;;;5014297;28;20453;-66
2022/01/21 10:38:44;;;;;;;12.87;6.00;;;3.30;99.70;;;;;;5014538;28;20500;-67
2022/01/21 10:41:13;;;;;;;16.47;5.23;;;3.30;99.70;;;;;;5014163;28;20972;-65
2022/01/21 10:43:41;;;;;;;12.73;5.87;;;3.20;99.70;;;;;;5014197;28;20446;-67
2022/01/21 10:46:14;;;;;;;19.60;6.20;;;3.10;99.70;;;;;;5014490;28;20454;-66
2022/01/21 10:49:02;;;;;;;13.93;5.90;;;3.20;99.70;;;;;;5015521;28;20816;-67
2022/01/21 10:51:30;;;;;;;15.60;5.80;;;3.20;99.70;;;;;;5015077;28;20450;-66
2022/01/21 10:53:59;;;;;;;18.23;6.47;;;3.20;99.70;;;;;;5014709;28;20453;-66
2022/01/21 10:56:29;;;;;;;13.70;5.30;;;3.20;99.70;;;;;;5023431;28;20871;-67
2022/01/21 10:58:59;;;;;;;18.40;7.30;;;3.30;99.70;;;;;;5016533;28;20492;-67
2022/01/21 11:01:29;;;;;;;12.83;6.20;;;3.30;99.70;;;;;;5020080;28;20884;-67
2022/01/21 11:03:59;;;;;;;19.47;5.93;;;3.40;99.70;;;;;;5030116;28;20449;-67
2022/01/21 11:06:34;;;;;;;19.70;6.07;;;3.40;99.70;;;;;;5031658;28;20899;-67
2022/01/21 11:09:15;;;;;;;15.23;6.10;;;3.30;99.70;;;;;;5029637;28;20464;-67
2022/01/21 11:11:42;;;;;;;16.30;6.90;;;3.40;99.70;;;;;;5031353;28;20460;-66
2022/01/21 11:14:13;;;;;;;15.63;5.23;;;3.50;99.70;;;;;;5029948;28;20445;-66
2022/01/21 11:16:43;;;;;;;21.20;8.67;;;3.40;99.70;;;;;;5031484;28;20511;-67
2022/01/21 11:19:12;;;;;;;26.50;13.97;;;3.40;99.70;;;;;;5029278;28;20484;-66
2022/01/21 11:21:45;;;;;;;20.63;8.53;;;3.50;99.70;;;;;;5031345;28;20526;-67
2022/01/21 11:24:13;;;;;;;15.80;6.43;;;3.50;99.70;;;;;;5029694;28;20499;-67
2022/01/21 11:26:40;;;;;;;18.30;6.60;;;3.50;99.70;;;;;;5031414;28;20453;-67
2022/01/21 11:29:08;;;;;;;26.50;10.83;;;3.50;99.70;;;;;;5029310;28;20469;-67
2022/01/21 11:31:36;;;;;;;15.20;7.10;;;3.60;99.70;;;;;;5030594;28;20456;-66
2022/01/21 11:34:03;;;;;;;14.73;5.47;;;3.60;99.70;;;;;;5029700;28;20442;-67
2022/01/21 11:36:30;;;;;;;17.40;6.43;;;3.70;99.70;;;;;;5031145;28;20461;-67
2022/01/21 11:38:58;;;;;;;17.53;5.03;;;3.40;99.70;;;;;;5028832;28;20498;-67
2022/01/21 11:41:26;;;;;;;11.70;6.13;;;3.50;99.70;;;;;;5031113;28;20927;-67
2022/01/21 11:43:59;;;;;;;12.77;4.50;;;3.50;99.70;;;;;;5028882;28;20837;-68
2022/01/21 11:46:40;;;;;;;10.90;4.80;;;3.50;99.70;;;;;;5031065;28;21063;-67
2022/01/21 11:49:17;;;;;;;18.23;5.03;;;3.60;99.70;;;;;;5028768;28;21011;-66
2022/01/21 11:51:44;;;;;;;22.83;5.70;;;3.80;99.70;;;;;;5029913;28;20538;-67
2022/01/21 11:54:13;;;;;;;16.33;5.40;;;3.90;99.70;;;;;;5028450;28;20457;-67
2022/01/21 11:56:43;;;;;;;10.80;5.00;;;3.70;99.70;;;;;;5051960;22;21102;-64
2022/01/21 11:59:15;;;;;;;11.27;4.10;;;3.70;99.70;;;;;;5012732;28;20854;-64
2022/01/21 12:01:47;;;;;;;10.20;4.00;;;3.80;99.70;;;;;;5013389;28;20508;-64
2022/01/21 12:04:36;;;;;;;12.07;3.90;;;4.00;99.70;;;;;;5014893;28;20544;-64
2022/01/21 12:07:03;;;;;;;13.87;4.20;;;3.80;99.70;;;;;;5014993;28;20473;-64
2022/01/21 12:09:55;;;;;;;14.50;4.10;;;3.70;99.70;;;;;;5013438;28;20448;-64
2022/01/21 12:12:22;;;;;;;9.97;4.00;;;3.80;99.70;;;;;;5014706;28;20451;-64
2022/01/21 12:14:54;;;;;;;10.67;4.07;;;3.90;99.70;;;;;;5013620;28;20965;-64
2022/01/21 12:17:44;;;;;;;13.17;4.40;;;3.70;99.70;;;;;;5014777;28;21050;-64
2022/01/21 12:20:12;;;;;;;10.37;4.10;;;3.50;99.70;;;;;;5013730;28;20488;-62
2022/01/21 12:22:39;;;;;;;11.00;4.17;;;3.60;99.70;;;;;;5011027;28;20524;-63
2022/01/21 12:25:08;;;;;;;13.40;3.60;;;3.60;99.70;;;;;;5007032;28;20825;-63
2022/01/21 12:27:36;;;;;;;14.30;4.00;;;3.60;99.70;;;;;;5024253;28;20476;-65
2022/01/21 12:30:31;;;;;;;13.17;3.83;;;3.60;99.70;;;;;;5027035;28;20522;-64
2022/01/21 12:33:02;;;;;;;11.73;3.70;;;3.60;99.70;;;;;;5029169;28;20444;-63
2022/01/21 12:35:31;;;;;;;11.50;3.67;;;3.60;99.70;;;;;;5029755;28;20448;-64
2022/01/21 12:41:34;;;;;;;13.27;3.90;;;3.70;99.70;;;;;;5030033;28;20432;-64
2022/01/21 12:44:03;;;;;;;12.97;4.00;;;3.50;99.70;;;;;;5029996;28;20444;-64
2022/01/21 12:46:34;;;;;;;8.90;3.63;;;3.70;99.70;;;;;;5031476;28;20846;-64
2022/01/21 12:49:03;;;;;;;9.50;3.40;;;3.60;99.70;;;;;;5031137;28;20441;-64
2022/01/21 12:51:55;;;;;;;8.87;3.50;;;3.70;99.70;;;;;;5026811;28;20452;-63
2022/01/21 12:57:10;;;;;;;9.87;3.57;;;3.60;99.70;;;;;;5009854;28;20526;-66
2022/01/21 12:59:38;;;;;;;10.13;3.37;;;3.70;99.70;;;;;;5012085;28;20481;-65
2022/01/21 13:02:06;;;;;;;9.10;3.70;;;3.70;99.70;;;;;;5012914;28;20504;-65
2022/01/21 13:04:46;;;;;;;11.83;3.80;;;3.70;99.70;;;;;;5028374;28;20456;-65
2022/01/21 13:07:25;;;;;;;9.43;3.30;;;3.70;99.70;;;;;;5028488;28;20560;-65
2022/01/21 13:10:11;;;;;;;9.37;3.20;;;3.80;99.70;;;;;;5008897;28;20449;-65
2022/01/21 13:15:47;;;;;;;9.40;3.20;;;3.50;99.70;;;;;;4967394;28;20493;-61
2022/01/21 13:18:16;;;;;;;9.40;3.60;;;3.40;99.70;;;;;;4998508;28;20456;-64
2022/01/21 13:20:45;;;;;;;10.63;3.70;;;3.30;99.70;;;;;;5013195;28;20457;-65
2022/01/21 13:23:20;;;;;;;10.13;4.10;;;3.30;99.70;;;;;;5011291;28;20445;-65
2022/01/21 13:25:47;;;;;;;9.40;3.57;;;3.40;99.70;;;;;;5011745;28;20502;-64
2022/01/21 13:28:13;;;;;;;12.17;3.53;;;3.40;99.70;;;;;;5010348;28;20956;-65
2022/01/21 13:30:40;;;;;;;14.87;3.60;;;3.40;99.70;;;;;;5011620;28;20445;-64
2022/01/21 13:33:09;;;;;;;15.60;4.00;;;3.30;99.70;;;;;;5011915;28;20446;-65
2022/01/21 13:35:38;;;;;;;9.50;3.73;;;3.50;99.70;;;;;;5013281;28;20441;-65
2022/01/21 13:38:07;;;;;;;10.10;2.93;;;3.40;99.70;;;;;;5019445;28;20485;-65
2022/01/21 13:40:37;;;;;;;16.33;4.30;;;3.50;99.70;;;;;;5016751;28;20829;-65
2022/01/21 13:43:11;;;;;;;11.17;3.10;;;3.50;99.70;;;;;;5021912;28;20982;-64
2022/01/21 13:45:37;;;;;;;10.73;3.93;;;3.40;99.70;;;;;;5027743;28;20440;-64
2022/01/21 13:48:06;;;;;;;13.00;3.70;;;3.30;99.70;;;;;;5012386;28;20453;-64
2022/01/21 13:50:34;;;;;;;9.70;3.40;;;3.30;99.70;;;;;;5013192;28;20441;-65